sensor_id;sensor_type;location;lat;lon;timestamp;P1;durP1;ratioP1;P2;durP2;ratioP2
74810;SDS011;63340;48.404;-4.506;2022-10-19T00:00:29;11.50;;;10.50;;
74810;SDS011;63340;48.404;-4.506;2022-10-19T00:02:55;13.25;;;11.75;;
74810;SDS011;63340;48.404;-4.506;2022-10-19T00:05:20;10.50;;;10.50;;
74810;SDS011;63340;48.404;-4.506;2022-10-19T00:07:45;10.00;;;10.00;;
74810;SDS011;63340;48.404;-4.506;2022-10-19T00:10:11;9.50;;;8.50;;
74810;SDS011;63340;48.404;-4.506;2022-10-19T00:12:36;14.25;;;14.25;;
74810;SDS011;63340;48.404;-4.506;2022-10-19T00:15:02;10.75;;;10.25;;
74810;SDS011;63340;48.404;-4.506;2022-10-19T00:17:29;9.75;;;9.75;;
74810;SDS011;63340;48.404;-4.506;2022-10-19T00:19:54;15.25;;;14.50;;
74810;SDS011;63340;48.404;-4.506;2022-10-19T00:22:20;11.25;;;11.25;;
74810;SDS011;63340;48.404;-4.506;2022-10-19T00:24:46;10.75;;;9.75;;
74810;SDS011;63340;48.404;-4.506;2022-10-19T00:27:12;12.75;;;10.25;;
74810;SDS011;63340;48.404;-4.506;2022-10-19T00:29:37;9.75;;;8.75;;
74810;SDS011;63340;48.404;-4.506;2022-10-19T00:32:03;13.25;;;11.00;;
74810;SDS011;63340;48.404;-4.506;2022-10-19T00:34:28;7.75;;;7.50;;
74810;SDS011;63340;48.404;-4.506;2022-10-19T00:36:54;10.00;;;10.00;;
74810;SDS011;63340;48.404;-4.506;2022-10-19T00:39:19;10.75;;;9.75;;
74810;SDS011;63340;48.404;-4.506;2022-10-19T00:41:45;12.50;;;10.50;;
74810;SDS011;63340;48.404;-4.506;2022-10-19T00:46:38;9.50;;;9.50;;
74810;SDS011;63340;48.404;-4.506;2022-10-19T00:49:06;11.75;;;11.25;;
74810;SDS011;63340;48.404;-4.506;2022-10-19T00:51:44;11.25;;;11.00;;
74810;SDS011;63340;48.404;-4.506;2022-10-19T00:54:12;12.25;;;11.00;;
74810;SDS011;63340;48.404;-4.506;2022-10-19T00:56:40;12.75;;;9.75;;
74810;SDS011;63340;48.404;-4.506;2022-10-19T00:59:07;15.75;;;10.75;;
74810;SDS011;63340;48.404;-4.506;2022-10-19T01:01:33;10.00;;;9.25;;
74810;SDS011;63340;48.404;-4.506;2022-10-19T01:03:59;9.50;;;9.50;;
74810;SDS011;63340;48.404;-4.506;2022-10-19T01:06:25;13.25;;;12.00;;
74810;SDS011;63340;48.404;-4.506;2022-10-19T01:08:52;11.75;;;11.00;;
74810;SDS011;63340;48.404;-4.506;2022-10-19T01:14:22;11.00;;;11.00;;
74810;SDS011;63340;48.404;-4.506;2022-10-19T01:33:31;11.25;;;11.25;;
74810;SDS011;63340;48.404;-4.506;2022-10-19T01:38:41;10.00;;;10.00;;
74810;SDS011;63340;48.404;-4.506;2022-10-19T01:41:16;10.50;;;10.50;;
74810;SDS011;63340;48.404;-4.506;2022-10-19T01:43:53;12.00;;;11.25;;
74810;SDS011;63340;48.404;-4.506;2022-10-19T01:46:42;13.25;;;13.25;;
74810;SDS011;63340;48.404;-4.506;2022-10-19T01:49:15;12.25;;;11.75;;
74810;SDS011;63340;48.404;-4.506;2022-10-19T01:51:52;12.75;;;10.75;;
74810;SDS011;63340;48.404;-4.506;2022-10-19T01:54:21;11.75;;;11.75;;
74810;SDS011;63340;48.404;-4.506;2022-10-19T01:56:50;9.25;;;8.25;;
74810;SDS011;63340;48.404;-4.506;2022-10-19T01:59:17;11.00;;;11.00;;
74810;SDS011;63340;48.404;-4.506;2022-10-19T02:01:45;9.75;;;9.75;;
74810;SDS011;63340;48.404;-4.506;2022-10-19T02:04:14;7.50;;;7.50;;
74810;SDS011;63340;48.404;-4.506;2022-10-19T02:06:41;13.25;;;11.25;;
74810;SDS011;63340;48.404;-4.506;2022-10-19T02:09:07;11.00;;;9.50;;
74810;SDS011;63340;48.404;-4.506;2022-10-19T02:11:33;11.25;;;9.50;;
74810;SDS011;63340;48.404;-4.506;2022-10-19T02:14:04;10.75;;;10.75;;
74810;SDS011;63340;48.404;-4.506;2022-10-19T02:16:36;10.25;;;10.25;;
74810;SDS011;63340;48.404;-4.506;2022-10-19T02:19:08;10.75;;;10.75;;
74810;SDS011;63340;48.404;-4.506;2022-10-19T02:21:38;11.25;;;10.50;;
74810;SDS011;63340;48.404;-4.506;2022-10-19T02:24:04;10.25;;;9.25;;
74810;SDS011;63340;48.404;-4.506;2022-10-19T02:26:30;13.75;;;13.75;;
74810;SDS011;63340;48.404;-4.506;2022-10-19T02:28:56;9.25;;;9.25;;
74810;SDS011;63340;48.404;-4.506;2022-10-19T02:31:22;11.75;;;10.75;;
74810;SDS011;63340;48.404;-4.506;2022-10-19T02:33:47;11.00;;;11.00;;
74810;SDS011;63340;48.404;-4.506;2022-10-19T02:36:13;12.75;;;11.25;;
74810;SDS011;63340;48.404;-4.506;2022-10-19T02:38:39;14.25;;;13.75;;
74810;SDS011;63340;48.404;-4.506;2022-10-19T02:41:07;10.75;;;10.75;;
74810;SDS011;63340;48.404;-4.506;2022-10-19T02:43:44;13.25;;;10.25;;
74810;SDS011;63340;48.404;-4.506;2022-10-19T02:49:09;14.75;;;11.00;;
74810;SDS011;63340;48.404;-4.506;2022-10-19T02:51:37;12.50;;;11.00;;
74810;SDS011;63340;48.404;-4.506;2022-10-19T02:54:04;10.50;;;9.50;;
74810;SDS011;63340;48.404;-4.506;2022-10-19T02:56:31;14.50;;;13.25;;
74810;SDS011;63340;48.404;-4.506;2022-10-19T02:58:58;15.00;;;11.00;;
74810;SDS011;63340;48.404;-4.506;2022-10-19T03:01:24;9.75;;;9.50;;
74810;SDS011;63340;48.404;-4.506;2022-10-19T03:03:49;14.50;;;11.50;;
74810;SDS011;63340;48.404;-4.506;2022-10-19T03:06:15;11.50;;;11.50;;
74810;SDS011;63340;48.404;-4.506;2022-10-19T03:08:40;14.25;;;11.25;;
74810;SDS011;63340;48.404;-4.506;2022-10-19T03:11:06;11.25;;;11.00;;
74810;SDS011;63340;48.404;-4.506;2022-10-19T03:13:31;10.50;;;10.50;;
74810;SDS011;63340;48.404;-4.506;2022-10-19T03:15:57;10.00;;;10.00;;
74810;SDS011;63340;48.404;-4.506;2022-10-19T03:18:22;13.50;;;13.50;;
74810;SDS011;63340;48.404;-4.506;2022-10-19T03:20:47;8.25;;;8.00;;
74810;SDS011;63340;48.404;-4.506;2022-10-19T03:23:13;10.75;;;10.75;;
74810;SDS011;63340;48.404;-4.506;2022-10-19T03:25:38;10.25;;;10.25;;
74810;SDS011;63340;48.404;-4.506;2022-10-19T03:28:03;10.50;;;10.50;;
74810;SDS011;63340;48.404;-4.506;2022-10-19T03:30:29;12.50;;;10.00;;
74810;SDS011;63340;48.404;-4.506;2022-10-19T03:32:54;10.75;;;10.25;;
74810;SDS011;63340;48.404;-4.506;2022-10-19T03:35:20;14.25;;;14.00;;
74810;SDS011;63340;48.404;-4.506;2022-10-19T03:37:45;14.00;;;14.00;;
74810;SDS011;63340;48.404;-4.506;2022-10-19T03:40:10;10.25;;;10.25;;
74810;SDS011;63340;48.404;-4.506;2022-10-19T03:42:36;12.50;;;11.75;;
74810;SDS011;63340;48.404;-4.506;2022-10-19T03:45:01;9.50;;;9.50;;
74810;SDS011;63340;48.404;-4.506;2022-10-19T03:47:27;13.00;;;12.25;;
74810;SDS011;63340;48.404;-4.506;2022-10-19T03:49:53;14.25;;;13.75;;
74810;SDS011;63340;48.404;-4.506;2022-10-19T03:52:18;10.75;;;10.75;;
74810;SDS011;63340;48.404;-4.506;2022-10-19T03:54:44;11.00;;;11.00;;
74810;SDS011;63340;48.404;-4.506;2022-10-19T03:57:10;13.50;;;12.75;;
74810;SDS011;63340;48.404;-4.506;2022-10-19T03:59:36;11.25;;;11.00;;
74810;SDS011;63340;48.404;-4.506;2022-10-19T04:02:02;9.75;;;9.00;;
74810;SDS011;63340;48.404;-4.506;2022-10-19T04:04:28;14.00;;;12.75;;
74810;SDS011;63340;48.404;-4.506;2022-10-19T04:06:53;10.00;;;10.00;;
74810;SDS011;63340;48.404;-4.506;2022-10-19T04:09:19;13.00;;;13.00;;
74810;SDS011;63340;48.404;-4.506;2022-10-19T04:11:46;10.75;;;10.75;;
74810;SDS011;63340;48.404;-4.506;2022-10-19T04:14:13;10.00;;;10.00;;
74810;SDS011;63340;48.404;-4.506;2022-10-19T04:16:39;10.75;;;10.75;;
74810;SDS011;63340;48.404;-4.506;2022-10-19T04:19:05;10.75;;;10.75;;
74810;SDS011;63340;48.404;-4.506;2022-10-19T04:21:31;11.00;;;10.00;;
74810;SDS011;63340;48.404;-4.506;2022-10-19T04:24:00;11.00;;;10.75;;
74810;SDS011;63340;48.404;-4.506;2022-10-19T04:26:31;11.50;;;11.50;;
74810;SDS011;63340;48.404;-4.506;2022-10-19T04:28:57;11.75;;;11.50;;
74810;SDS011;63340;48.404;-4.506;2022-10-19T04:31:23;9.50;;;9.50;;
74810;SDS011;63340;48.404;-4.506;2022-10-19T04:33:48;15.00;;;11.50;;
74810;SDS011;63340;48.404;-4.506;2022-10-19T04:36:13;10.00;;;10.00;;
74810;SDS011;63340;48.404;-4.506;2022-10-19T04:38:39;14.75;;;13.50;;
74810;SDS011;63340;48.404;-4.506;2022-10-19T04:41:06;11.00;;;10.75;;
74810;SDS011;63340;48.404;-4.506;2022-10-19T04:43:33;8.25;;;8.25;;
74810;SDS011;63340;48.404;-4.506;2022-10-19T04:46:06;10.25;;;9.50;;
74810;SDS011;63340;48.404;-4.506;2022-10-19T04:48:37;11.75;;;11.25;;
74810;SDS011;63340;48.404;-4.506;2022-10-19T04:51:03;8.75;;;8.50;;
74810;SDS011;63340;48.404;-4.506;2022-10-19T04:53:30;14.25;;;13.25;;
74810;SDS011;63340;48.404;-4.506;2022-10-19T04:55:55;10.50;;;10.25;;
74810;SDS011;63340;48.404;-4.506;2022-10-19T04:58:21;14.00;;;10.75;;
74810;SDS011;63340;48.404;-4.506;2022-10-19T05:00:47;9.00;;;7.75;;
74810;SDS011;63340;48.404;-4.506;2022-10-19T05:03:13;12.25;;;12.25;;
74810;SDS011;63340;48.404;-4.506;2022-10-19T05:05:38;13.75;;;12.50;;
74810;SDS011;63340;48.404;-4.506;2022-10-19T05:08:04;12.50;;;12.50;;
74810;SDS011;63340;48.404;-4.506;2022-10-19T05:10:29;14.25;;;13.00;;
74810;SDS011;63340;48.404;-4.506;2022-10-19T05:12:55;16.75;;;15.75;;
74810;SDS011;63340;48.404;-4.506;2022-10-19T05:15:20;16.25;;;15.25;;
74810;SDS011;63340;48.404;-4.506;2022-10-19T05:17:46;12.50;;;12.25;;
74810;SDS011;63340;48.404;-4.506;2022-10-19T05:20:11;11.75;;;11.25;;
74810;SDS011;63340;48.404;-4.506;2022-10-19T05:22:37;16.50;;;13.25;;
74810;SDS011;63340;48.404;-4.506;2022-10-19T05:25:03;15.25;;;14.50;;
74810;SDS011;63340;48.404;-4.506;2022-10-19T05:27:29;13.00;;;12.50;;
74810;SDS011;63340;48.404;-4.506;2022-10-19T05:29:55;15.00;;;13.75;;
74810;SDS011;63340;48.404;-4.506;2022-10-19T05:32:20;12.25;;;11.00;;
74810;SDS011;63340;48.404;-4.506;2022-10-19T05:34:45;13.50;;;13.50;;
74810;SDS011;63340;48.404;-4.506;2022-10-19T05:37:11;16.25;;;15.00;;
74810;SDS011;63340;48.404;-4.506;2022-10-19T05:39:36;13.50;;;13.50;;
74810;SDS011;63340;48.404;-4.506;2022-10-19T05:42:02;12.25;;;11.50;;
74810;SDS011;63340;48.404;-4.506;2022-10-19T05:44:27;11.25;;;11.25;;
74810;SDS011;63340;48.404;-4.506;2022-10-19T05:46:53;15.75;;;15.75;;
74810;SDS011;63340;48.404;-4.506;2022-10-19T05:49:19;14.25;;;13.50;;
74810;SDS011;63340;48.404;-4.506;2022-10-19T05:51:45;15.25;;;14.25;;
74810;SDS011;63340;48.404;-4.506;2022-10-19T05:54:11;16.50;;;15.25;;
74810;SDS011;63340;48.404;-4.506;2022-10-19T05:56:38;15.50;;;12.00;;
74810;SDS011;63340;48.404;-4.506;2022-10-19T05:59:05;16.75;;;15.00;;
74810;SDS011;63340;48.404;-4.506;2022-10-19T06:01:32;18.50;;;16.00;;
74810;SDS011;63340;48.404;-4.506;2022-10-19T06:03:58;16.00;;;15.00;;
74810;SDS011;63340;48.404;-4.506;2022-10-19T06:06:25;15.50;;;13.25;;
74810;SDS011;63340;48.404;-4.506;2022-10-19T06:08:51;12.25;;;9.75;;
74810;SDS011;63340;48.404;-4.506;2022-10-19T06:11:19;17.25;;;15.75;;
74810;SDS011;63340;48.404;-4.506;2022-10-19T06:13:50;14.50;;;14.50;;
74810;SDS011;63340;48.404;-4.506;2022-10-19T06:16:18;13.00;;;12.50;;
74810;SDS011;63340;48.404;-4.506;2022-10-19T06:18:45;13.50;;;12.00;;
74810;SDS011;63340;48.404;-4.506;2022-10-19T06:21:15;15.00;;;15.00;;
74810;SDS011;63340;48.404;-4.506;2022-10-19T06:23:42;14.75;;;14.25;;
74810;SDS011;63340;48.404;-4.506;2022-10-19T06:26:12;15.50;;;14.00;;
74810;SDS011;63340;48.404;-4.506;2022-10-19T06:28:39;17.25;;;15.75;;
74810;SDS011;63340;48.404;-4.506;2022-10-19T06:31:06;14.75;;;14.75;;
74810;SDS011;63340;48.404;-4.506;2022-10-19T06:33:33;16.50;;;16.50;;
74810;SDS011;63340;48.404;-4.506;2022-10-19T06:59:25;20.00;;;18.75;;
74810;SDS011;63340;48.404;-4.506;2022-10-19T07:01:51;18.25;;;17.50;;
74810;SDS011;63340;48.404;-4.506;2022-10-19T07:04:17;18.25;;;15.75;;
74810;SDS011;63340;48.404;-4.506;2022-10-19T07:06:42;17.25;;;15.00;;
74810;SDS011;63340;48.404;-4.506;2022-10-19T07:09:07;15.25;;;14.00;;
74810;SDS011;63340;48.404;-4.506;2022-10-19T07:11:34;14.25;;;14.25;;
74810;SDS011;63340;48.404;-4.506;2022-10-19T07:13:59;16.25;;;14.50;;
74810;SDS011;63340;48.404;-4.506;2022-10-19T07:16:24;13.25;;;12.50;;
74810;SDS011;63340;48.404;-4.506;2022-10-19T07:18:51;16.25;;;16.00;;
74810;SDS011;63340;48.404;-4.506;2022-10-19T07:21:18;15.25;;;13.25;;
74810;SDS011;63340;48.404;-4.506;2022-10-19T07:23:45;16.75;;;15.75;;
74810;SDS011;63340;48.404;-4.506;2022-10-19T07:28:37;14.75;;;12.75;;
74810;SDS011;63340;48.404;-4.506;2022-10-19T07:31:05;15.00;;;15.00;;
74810;SDS011;63340;48.404;-4.506;2022-10-19T07:33:35;12.25;;;11.50;;
74810;SDS011;63340;48.404;-4.506;2022-10-19T07:36:16;16.75;;;16.00;;
74810;SDS011;63340;48.404;-4.506;2022-10-19T07:41:50;15.00;;;14.00;;
74810;SDS011;63340;48.404;-4.506;2022-10-19T07:44:23;15.50;;;15.50;;
74810;SDS011;63340;48.404;-4.506;2022-10-19T07:46:51;14.50;;;14.50;;
74810;SDS011;63340;48.404;-4.506;2022-10-19T07:49:17;15.50;;;14.50;;
74810;SDS011;63340;48.404;-4.506;2022-10-19T07:51:44;14.75;;;14.25;;
74810;SDS011;63340;48.404;-4.506;2022-10-19T07:54:34;14.25;;;12.75;;
74810;SDS011;63340;48.404;-4.506;2022-10-19T08:03:06;17.50;;;16.75;;
74810;SDS011;63340;48.404;-4.506;2022-10-19T08:05:32;13.75;;;12.50;;
74810;SDS011;63340;48.404;-4.506;2022-10-19T08:08:16;11.00;;;9.50;;
74810;SDS011;63340;48.404;-4.506;2022-10-19T08:10:45;15.00;;;15.00;;
74810;SDS011;63340;48.404;-4.506;2022-10-19T08:13:10;11.00;;;11.00;;
74810;SDS011;63340;48.404;-4.506;2022-10-19T08:15:36;16.75;;;15.00;;
74810;SDS011;63340;48.404;-4.506;2022-10-19T08:18:04;15.50;;;14.75;;
74810;SDS011;63340;48.404;-4.506;2022-10-19T08:20:41;15.50;;;13.75;;
74810;SDS011;63340;48.404;-4.506;2022-10-19T08:23:45;14.50;;;13.50;;
74810;SDS011;63340;48.404;-4.506;2022-10-19T08:26:10;10.00;;;10.00;;
74810;SDS011;63340;48.404;-4.506;2022-10-19T08:28:36;15.00;;;14.75;;
74810;SDS011;63340;48.404;-4.506;2022-10-19T08:31:35;17.50;;;16.00;;
74810;SDS011;63340;48.404;-4.506;2022-10-19T08:34:09;10.25;;;10.25;;
74810;SDS011;63340;48.404;-4.506;2022-10-19T08:36:44;13.00;;;13.00;;
74810;SDS011;63340;48.404;-4.506;2022-10-19T08:39:10;15.00;;;15.00;;
74810;SDS011;63340;48.404;-4.506;2022-10-19T08:44:24;16.25;;;14.25;;
74810;SDS011;63340;48.404;-4.506;2022-10-19T08:47:02;14.75;;;12.25;;
74810;SDS011;63340;48.404;-4.506;2022-10-19T08:49:55;15.25;;;14.25;;
74810;SDS011;63340;48.404;-4.506;2022-10-19T08:52:23;16.50;;;14.50;;
74810;SDS011;63340;48.404;-4.506;2022-10-19T08:54:53;14.25;;;13.25;;
74810;SDS011;63340;48.404;-4.506;2022-10-19T09:00:42;12.00;;;11.50;;
74810;SDS011;63340;48.404;-4.506;2022-10-19T09:03:30;11.00;;;11.00;;
74810;SDS011;63340;48.404;-4.506;2022-10-19T09:06:15;13.50;;;12.00;;
74810;SDS011;63340;48.404;-4.506;2022-10-19T09:08:51;12.50;;;12.50;;
74810;SDS011;63340;48.404;-4.506;2022-10-19T09:14:42;10.75;;;10.75;;
74810;SDS011;63340;48.404;-4.506;2022-10-19T09:17:36;17.50;;;16.50;;
74810;SDS011;63340;48.404;-4.506;2022-10-19T09:20:12;14.25;;;14.25;;
74810;SDS011;63340;48.404;-4.506;2022-10-19T09:22:40;15.75;;;15.75;;
74810;SDS011;63340;48.404;-4.506;2022-10-19T09:25:28;11.25;;;11.25;;
74810;SDS011;63340;48.404;-4.506;2022-10-19T09:31:00;13.75;;;13.75;;
74810;SDS011;63340;48.404;-4.506;2022-10-19T09:33:29;14.00;;;12.75;;
74810;SDS011;63340;48.404;-4.506;2022-10-19T09:36:05;18.00;;;16.25;;
74810;SDS011;63340;48.404;-4.506;2022-10-19T09:38:32;11.50;;;11.50;;
74810;SDS011;63340;48.404;-4.506;2022-10-19T09:40:58;13.25;;;13.25;;
74810;SDS011;63340;48.404;-4.506;2022-10-19T09:43:46;12.50;;;11.25;;
74810;SDS011;63340;48.404;-4.506;2022-10-19T09:49:16;16.50;;;15.75;;
74810;SDS011;63340;48.404;-4.506;2022-10-19T09:51:49;15.50;;;15.50;;
74810;SDS011;63340;48.404;-4.506;2022-10-19T09:54:23;18.50;;;14.75;;
74810;SDS011;63340;48.404;-4.506;2022-10-19T09:56:55;15.50;;;14.50;;
74810;SDS011;63340;48.404;-4.506;2022-10-19T09:59:32;14.50;;;12.00;;
74810;SDS011;63340;48.404;-4.506;2022-10-19T10:02:10;11.25;;;11.25;;
74810;SDS011;63340;48.404;-4.506;2022-10-19T10:05:08;11.75;;;11.50;;
74810;SDS011;63340;48.404;-4.506;2022-10-19T10:07:44;17.50;;;15.75;;
74810;SDS011;63340;48.404;-4.506;2022-10-19T10:13:53;14.75;;;13.25;;
74810;SDS011;63340;48.404;-4.506;2022-10-19T10:33:38;19.00;;;17.00;;
74810;SDS011;63340;48.404;-4.506;2022-10-19T10:36:32;13.25;;;11.75;;
74810;SDS011;63340;48.404;-4.506;2022-10-19T10:39:13;14.00;;;11.25;;
74810;SDS011;63340;48.404;-4.506;2022-10-19T10:41:52;15.50;;;15.25;;
74810;SDS011;63340;48.404;-4.506;2022-10-19T10:47:49;13.50;;;12.75;;
74810;SDS011;63340;48.404;-4.506;2022-10-19T10:50:33;14.00;;;14.00;;
74810;SDS011;63340;48.404;-4.506;2022-10-19T10:53:38;14.25;;;11.00;;
74810;SDS011;63340;48.404;-4.506;2022-10-19T10:59:17;14.00;;;13.50;;
74810;SDS011;63340;48.404;-4.506;2022-10-19T11:05:54;10.25;;;10.25;;
74810;SDS011;63340;48.404;-4.506;2022-10-19T11:08:44;11.25;;;10.75;;
74810;SDS011;63340;48.404;-4.506;2022-10-19T11:11:21;11.25;;;10.50;;
74810;SDS011;63340;48.404;-4.506;2022-10-19T11:21:35;15.50;;;12.75;;
74810;SDS011;63340;48.404;-4.506;2022-10-19T11:24:17;15.50;;;13.00;;
74810;SDS011;63340;48.404;-4.506;2022-10-19T11:26:52;11.00;;;10.00;;
74810;SDS011;63340;48.404;-4.506;2022-10-19T11:29:25;10.00;;;9.50;;
74810;SDS011;63340;48.404;-4.506;2022-10-19T11:31:56;10.50;;;9.25;;
74810;SDS011;63340;48.404;-4.506;2022-10-19T11:34:42;11.75;;;10.25;;
74810;SDS011;63340;48.404;-4.506;2022-10-19T11:40:18;10.25;;;9.75;;
74810;SDS011;63340;48.404;-4.506;2022-10-19T11:56:18;9.50;;;9.50;;
74810;SDS011;63340;48.404;-4.506;2022-10-19T12:01:48;9.00;;;8.75;;
74810;SDS011;63340;48.404;-4.506;2022-10-19T12:04:38;7.75;;;5.50;;
74810;SDS011;63340;48.404;-4.506;2022-10-19T12:14:02;10.75;;;9.75;;
74810;SDS011;63340;48.404;-4.506;2022-10-19T12:20:05;11.00;;;9.50;;
74810;SDS011;63340;48.404;-4.506;2022-10-19T12:22:39;12.50;;;10.50;;
74810;SDS011;63340;48.404;-4.506;2022-10-19T12:25:18;9.00;;;8.50;;
74810;SDS011;63340;48.404;-4.506;2022-10-19T12:28:07;11.75;;;11.75;;
74810;SDS011;63340;48.404;-4.506;2022-10-19T12:30:45;9.25;;;9.25;;
74810;SDS011;63340;48.404;-4.506;2022-10-19T12:33:14;9.25;;;9.25;;
74810;SDS011;63340;48.404;-4.506;2022-10-19T12:38:15;10.25;;;10.00;;
74810;SDS011;63340;48.404;-4.506;2022-10-19T12:40:54;11.25;;;9.75;;
74810;SDS011;63340;48.404;-4.506;2022-10-19T12:46:52;15.75;;;13.75;;
74810;SDS011;63340;48.404;-4.506;2022-10-19T12:50:08;15.00;;;12.00;;
74810;SDS011;63340;48.404;-4.506;2022-10-19T12:52:37;16.25;;;12.00;;
74810;SDS011;63340;48.404;-4.506;2022-10-19T12:55:29;13.00;;;10.25;;
74810;SDS011;63340;48.404;-4.506;2022-10-19T12:58:05;11.75;;;11.75;;
74810;SDS011;63340;48.404;-4.506;2022-10-19T13:00:56;13.50;;;11.75;;
74810;SDS011;63340;48.404;-4.506;2022-10-19T13:03:49;14.25;;;13.75;;
74810;SDS011;63340;48.404;-4.506;2022-10-19T13:06:35;12.25;;;12.25;;
74810;SDS011;63340;48.404;-4.506;2022-10-19T13:17:38;14.25;;;12.25;;
74810;SDS011;63340;48.404;-4.506;2022-10-19T13:25:59;14.00;;;12.50;;
74810;SDS011;63340;48.404;-4.506;2022-10-19T13:28:55;16.75;;;12.25;;
74810;SDS011;63340;48.404;-4.506;2022-10-19T13:31:22;11.25;;;11.25;;
74810;SDS011;63340;48.404;-4.506;2022-10-19T13:34:38;15.50;;;11.50;;
74810;SDS011;63340;48.404;-4.506;2022-10-19T13:37:37;15.25;;;15.25;;
74810;SDS011;63340;48.404;-4.506;2022-10-19T13:40:10;14.00;;;12.50;;
74810;SDS011;63340;48.404;-4.506;2022-10-19T13:42:58;11.25;;;10.50;;
74810;SDS011;63340;48.404;-4.506;2022-10-19T13:54:42;15.00;;;14.75;;
74810;SDS011;63340;48.404;-4.506;2022-10-19T14:06:42;14.00;;;13.75;;
74810;SDS011;63340;48.404;-4.506;2022-10-19T14:12:23;11.25;;;10.00;;
74810;SDS011;63340;48.404;-4.506;2022-10-19T14:14:54;11.75;;;11.25;;
74810;SDS011;63340;48.404;-4.506;2022-10-19T14:17:32;15.75;;;14.25;;
74810;SDS011;63340;48.404;-4.506;2022-10-19T14:26:17;17.25;;;16.75;;
74810;SDS011;63340;48.404;-4.506;2022-10-19T14:28:50;15.50;;;13.00;;
74810;SDS011;63340;48.404;-4.506;2022-10-19T14:31:22;18.00;;;17.00;;
74810;SDS011;63340;48.404;-4.506;2022-10-19T14:33:50;13.75;;;13.25;;
74810;SDS011;63340;48.404;-4.506;2022-10-19T14:36:18;18.50;;;14.75;;
74810;SDS011;63340;48.404;-4.506;2022-10-19T14:38:47;15.75;;;14.25;;
74810;SDS011;63340;48.404;-4.506;2022-10-19T14:41:28;18.50;;;17.00;;
74810;SDS011;63340;48.404;-4.506;2022-10-19T14:43:56;14.25;;;10.00;;
74810;SDS011;63340;48.404;-4.506;2022-10-19T14:46:24;17.50;;;15.25;;
74810;SDS011;63340;48.404;-4.506;2022-10-19T14:48:56;17.25;;;14.75;;
74810;SDS011;63340;48.404;-4.506;2022-10-19T14:53:54;10.00;;;10.00;;
74810;SDS011;63340;48.404;-4.506;2022-10-19T14:59:03;15.00;;;14.50;;
74810;SDS011;63340;48.404;-4.506;2022-10-19T15:01:47;15.00;;;12.75;;
74810;SDS011;63340;48.404;-4.506;2022-10-19T15:04:26;16.00;;;14.00;;
74810;SDS011;63340;48.404;-4.506;2022-10-19T15:06:55;22.00;;;15.25;;
74810;SDS011;63340;48.404;-4.506;2022-10-19T15:09:29;16.50;;;14.25;;
74810;SDS011;63340;48.404;-4.506;2022-10-19T15:12:02;15.50;;;11.50;;
74810;SDS011;63340;48.404;-4.506;2022-10-19T15:14:34;12.25;;;11.25;;
74810;SDS011;63340;48.404;-4.506;2022-10-19T15:17:02;11.75;;;11.25;;
74810;SDS011;63340;48.404;-4.506;2022-10-19T15:19:30;14.75;;;13.00;;
74810;SDS011;63340;48.404;-4.506;2022-10-19T15:22:10;12.00;;;10.50;;
74810;SDS011;63340;48.404;-4.506;2022-10-19T15:27:36;14.75;;;12.75;;
74810;SDS011;63340;48.404;-4.506;2022-10-19T15:32:42;12.25;;;12.25;;
74810;SDS011;63340;48.404;-4.506;2022-10-19T15:38:01;14.00;;;11.50;;
74810;SDS011;63340;48.404;-4.506;2022-10-19T15:40:31;13.00;;;11.25;;
74810;SDS011;63340;48.404;-4.506;2022-10-19T15:42:59;8.50;;;8.25;;
74810;SDS011;63340;48.404;-4.506;2022-10-19T15:53:47;7.50;;;5.50;;
74810;SDS011;63340;48.404;-4.506;2022-10-19T15:56:15;6.00;;;5.25;;
74810;SDS011;63340;48.404;-4.506;2022-10-19T15:58:40;6.75;;;5.00;;
74810;SDS011;63340;48.404;-4.506;2022-10-19T16:01:16;7.00;;;6.25;;
74810;SDS011;63340;48.404;-4.506;2022-10-19T16:03:55;6.00;;;5.00;;
74810;SDS011;63340;48.404;-4.506;2022-10-19T16:06:23;4.50;;;3.25;;
74810;SDS011;63340;48.404;-4.506;2022-10-19T16:08:50;4.75;;;4.25;;
74810;SDS011;63340;48.404;-4.506;2022-10-19T16:11:18;6.00;;;6.00;;
74810;SDS011;63340;48.404;-4.506;2022-10-19T16:13:45;6.00;;;4.00;;
74810;SDS011;63340;48.404;-4.506;2022-10-19T16:18:59;3.00;;;2.00;;
74810;SDS011;63340;48.404;-4.506;2022-10-19T16:21:29;3.00;;;3.00;;
74810;SDS011;63340;48.404;-4.506;2022-10-19T16:23:57;3.25;;;3.00;;
74810;SDS011;63340;48.404;-4.506;2022-10-19T16:26:22;1.50;;;1.00;;
74810;SDS011;63340;48.404;-4.506;2022-10-19T16:28:50;2.50;;;1.75;;
74810;SDS011;63340;48.404;-4.506;2022-10-19T16:31:19;0.50;;;0.50;;
74810;SDS011;63340;48.404;-4.506;2022-10-19T16:33:45;1.00;;;1.00;;
74810;SDS011;63340;48.404;-4.506;2022-10-19T16:36:23;2.25;;;2.25;;
74810;SDS011;63340;48.404;-4.506;2022-10-19T16:38:51;1.50;;;1.50;;
74810;SDS011;63340;48.404;-4.506;2022-10-19T16:41:19;1.50;;;1.50;;
74810;SDS011;63340;48.404;-4.506;2022-10-19T16:43:45;3.75;;;2.00;;
74810;SDS011;63340;48.404;-4.506;2022-10-19T16:46:19;2.00;;;1.00;;
74810;SDS011;63340;48.404;-4.506;2022-10-19T16:48:56;1.75;;;1.50;;
74810;SDS011;63340;48.404;-4.506;2022-10-19T16:54:01;2.00;;;2.00;;
74810;SDS011;63340;48.404;-4.506;2022-10-19T16:56:28;1.00;;;1.00;;
74810;SDS011;63340;48.404;-4.506;2022-10-19T16:58:59;3.25;;;1.25;;
74810;SDS011;63340;48.404;-4.506;2022-10-19T17:01:28;1.00;;;1.00;;
74810;SDS011;63340;48.404;-4.506;2022-10-19T17:03:56;2.75;;;2.00;;
74810;SDS011;63340;48.404;-4.506;2022-10-19T17:06:22;2.00;;;1.25;;
74810;SDS011;63340;48.404;-4.506;2022-10-19T17:08:51;4.00;;;1.50;;
74810;SDS011;63340;48.404;-4.506;2022-10-19T17:11:20;1.25;;;1.25;;
74810;SDS011;63340;48.404;-4.506;2022-10-19T17:13:48;0.00;;;0.00;;
74810;SDS011;63340;48.404;-4.506;2022-10-19T17:16:16;1.00;;;1.00;;
74810;SDS011;63340;48.404;-4.506;2022-10-19T17:18:42;4.50;;;1.25;;
74810;SDS011;63340;48.404;-4.506;2022-10-19T17:21:16;1.00;;;1.00;;
74810;SDS011;63340;48.404;-4.506;2022-10-19T17:23:43;2.50;;;1.00;;
74810;SDS011;63340;48.404;-4.506;2022-10-19T17:26:10;2.00;;;2.00;;
74810;SDS011;63340;48.404;-4.506;2022-10-19T17:28:36;1.00;;;1.00;;
74810;SDS011;63340;48.404;-4.506;2022-10-19T17:31:04;1.25;;;1.25;;
74810;SDS011;63340;48.404;-4.506;2022-10-19T17:33:35;0.75;;;0.75;;
74810;SDS011;63340;48.404;-4.506;2022-10-19T17:38:30;3.25;;;1.00;;
74810;SDS011;63340;48.404;-4.506;2022-10-19T17:41:16;2.00;;;1.25;;
74810;SDS011;63340;48.404;-4.506;2022-10-19T17:43:45;3.50;;;1.75;;
74810;SDS011;63340;48.404;-4.506;2022-10-19T17:46:22;2.50;;;1.75;;
74810;SDS011;63340;48.404;-4.506;2022-10-19T17:48:53;1.50;;;1.00;;
74810;SDS011;63340;48.404;-4.506;2022-10-19T17:51:21;5.00;;;3.00;;
74810;SDS011;63340;48.404;-4.506;2022-10-19T17:53:48;3.00;;;1.25;;
74810;SDS011;63340;48.404;-4.506;2022-10-19T17:56:18;3.00;;;3.00;;
74810;SDS011;63340;48.404;-4.506;2022-10-19T17:58:45;3.00;;;1.50;;
74810;SDS011;63340;48.404;-4.506;2022-10-19T18:01:10;2.75;;;1.75;;
74810;SDS011;63340;48.404;-4.506;2022-10-19T18:03:39;1.00;;;1.00;;
74810;SDS011;63340;48.404;-4.506;2022-10-19T18:06:06;2.00;;;2.00;;
74810;SDS011;63340;48.404;-4.506;2022-10-19T18:08:33;4.00;;;1.75;;
74810;SDS011;63340;48.404;-4.506;2022-10-19T18:11:02;3.00;;;2.75;;
74810;SDS011;63340;48.404;-4.506;2022-10-19T18:13:29;3.25;;;3.00;;
74810;SDS011;63340;48.404;-4.506;2022-10-19T18:16:14;1.00;;;1.00;;
74810;SDS011;63340;48.404;-4.506;2022-10-19T18:18:43;1.75;;;1.50;;
74810;SDS011;63340;48.404;-4.506;2022-10-19T18:21:11;4.75;;;2.00;;